createdAt,value
2023-05-16T00:02:11.964Z,69.63
2023-05-16T00:04:39.543Z,69.60
2023-05-16T00:07:07.996Z,70.15
2023-05-16T00:09:35.760Z,71.84
2023-05-16T00:12:04.348Z,72.41
2023-05-16T00:14:31.892Z,73.51
2023-05-16T00:17:00.926Z,74.01
2023-05-16T00:19:29.921Z,74.02
2023-05-16T00:21:57.497Z,72.97
2023-05-16T00:24:25.772Z,73.18
2023-05-16T00:26:53.237Z,73.75
2023-05-16T00:29:21.853Z,75.00
2023-05-16T00:31:49.449Z,75.81
2023-05-16T00:34:21.155Z,76.57
2023-05-16T00:36:50.035Z,77.06
2023-05-16T00:39:17.567Z,76.95
2023-05-16T00:41:45.740Z,76.99
2023-05-16T00:44:13.315Z,77.11
2023-05-16T00:46:41.004Z,77.67
2023-05-16T00:49:09.062Z,77.25
2023-05-16T00:51:36.657Z,76.97
2023-05-16T00:54:04.234Z,76.95
2023-05-16T00:56:32.153Z,77.48
2023-05-16T00:59:00.143Z,78.90
2023-05-16T01:01:28.055Z,79.34
2023-05-16T01:03:55.621Z,80.23
2023-05-16T01:06:24.781Z,79.98
2023-05-16T01:08:52.318Z,80.84
2023-05-16T01:11:36.203Z,81.10
2023-05-16T01:14:12.408Z,81.61
2023-05-16T01:16:46.088Z,82.49
2023-05-16T01:19:43.016Z,82.92
2023-05-16T01:22:16.189Z,83.00
2023-05-16T01:24:56.399Z,82.85
2023-05-16T01:27:23.911Z,82.67
2023-05-16T01:29:56.028Z,82.18
2023-05-16T01:32:24.436Z,80.85
2023-05-16T01:34:52.032Z,80.43
2023-05-16T01:37:24.553Z,80.38
2023-05-16T01:40:02.284Z,81.72
2023-05-16T01:42:30.439Z,83.01
2023-05-16T01:45:07.112Z,83.98
2023-05-16T01:47:36.636Z,83.29
2023-05-16T01:50:14.091Z,82.24
2023-05-16T01:52:50.834Z,81.99
2023-05-16T01:55:48.095Z,81.55
2023-05-16T01:58:17.237Z,82.30
2023-05-16T02:00:44.730Z,83.63
2023-05-16T02:03:12.615Z,84.02
2023-05-16T02:05:40.344Z,84.80
2023-05-16T02:08:08.678Z,84.60
2023-05-16T02:10:36.636Z,83.82
2023-05-16T02:13:04.185Z,84.02
2023-05-16T02:15:32.412Z,84.01
2023-05-16T02:18:00.334Z,83.18
2023-05-16T02:20:27.977Z,82.19
2023-05-16T02:22:55.667Z,81.91
2023-05-16T02:25:23.594Z,81.56
2023-05-16T02:27:51.316Z,81.16
2023-05-16T02:30:18.922Z,80.80
2023-05-16T02:32:48.663Z,80.77
2023-05-16T02:35:17.568Z,80.41
2023-05-16T02:37:44.976Z,80.30
2023-05-16T02:40:13.206Z,80.48
2023-05-16T02:42:41.128Z,80.32
2023-05-16T02:45:10.436Z,80.20
2023-05-16T02:47:37.912Z,81.21
2023-05-16T02:50:06.873Z,80.71
2023-05-16T02:52:36.020Z,80.80
2023-05-16T02:55:20.912Z,80.57
2023-05-16T02:57:50.488Z,80.78
2023-05-16T03:00:18.790Z,80.19
2023-05-16T03:02:46.760Z,80.18
2023-05-16T03:05:14.636Z,80.04
2023-05-16T03:07:42.703Z,79.68
2023-05-16T03:10:10.832Z,79.60
2023-05-16T03:12:39.258Z,79.69
2023-05-16T03:15:08.979Z,79.17
2023-05-16T03:17:37.645Z,79.12
2023-05-16T03:20:08.632Z,79.20
2023-05-16T03:22:36.962Z,78.66
2023-05-16T03:25:05.426Z,78.32
2023-05-16T03:27:33.097Z,78.29
2023-05-16T03:30:00.900Z,77.85
2023-05-16T03:32:28.447Z,77.93
2023-05-16T03:34:55.952Z,77.45
2023-05-16T03:37:24.319Z,77.01
2023-05-16T03:39:52.078Z,76.53
2023-05-16T03:42:19.740Z,76.35
2023-05-16T03:44:47.375Z,76.41
2023-05-16T03:47:14.606Z,75.41
2023-05-16T03:49:42.738Z,75.11
2023-05-16T03:52:10.245Z,74.44
2023-05-16T03:54:37.673Z,73.98
2023-05-16T03:57:05.797Z,73.85
2023-05-16T03:59:34.343Z,73.11
2023-05-16T04:02:01.866Z,72.43
2023-05-16T04:04:30.083Z,72.40
2023-05-16T04:06:57.758Z,72.22
2023-05-16T04:09:25.137Z,71.62
2023-05-16T04:11:52.570Z,70.86
2023-05-16T04:14:20.508Z,70.63
2023-05-16T04:16:47.973Z,70.17
2023-05-16T04:19:15.730Z,69.60
2023-05-16T04:21:43.186Z,68.98
2023-05-16T04:24:10.646Z,67.99
2023-05-16T04:26:38.112Z,67.89
2023-05-16T04:29:05.904Z,67.44
2023-05-16T04:31:33.400Z,66.83
2023-05-16T04:34:01.191Z,66.63
2023-05-16T04:36:29.938Z,66.21
2023-05-16T04:38:57.585Z,66.38
2023-05-16T04:41:25.127Z,66.28
2023-05-16T04:43:53.491Z,65.48
2023-05-16T04:46:20.968Z,65.51
2023-05-16T04:48:48.929Z,64.99
2023-05-16T04:51:16.299Z,64.68
2023-05-16T04:53:43.996Z,64.23
2023-05-16T04:56:11.737Z,63.72
2023-05-16T04:58:41.068Z,63.96
2023-05-16T05:01:10.496Z,63.82
2023-05-16T05:03:38.049Z,63.63
2023-05-16T05:06:06.671Z,63.18
2023-05-16T05:08:34.300Z,62.37
2023-05-16T05:11:01.956Z,62.03
2023-05-16T05:13:29.602Z,61.83
2023-05-16T05:15:57.221Z,61.53
2023-05-16T05:18:24.824Z,61.29
2023-05-16T05:20:52.453Z,61.82
2023-05-16T05:23:20.590Z,61.38
2023-05-16T05:25:48.034Z,61.32
2023-05-16T05:28:16.019Z,61.30
2023-05-16T05:30:43.575Z,60.74
2023-05-16T05:33:14.780Z,60.00
2023-05-16T05:35:42.319Z,59.91
2023-05-16T05:38:10.836Z,59.41
2023-05-16T05:40:38.414Z,58.94
2023-05-16T05:43:06.206Z,58.04
2023-05-16T05:45:33.928Z,57.87
2023-05-16T05:48:01.702Z,56.54
2023-05-16T05:50:29.568Z,56.35
2023-05-16T05:52:57.010Z,56.15
2023-05-16T05:55:24.564Z,55.82
2023-05-16T05:57:52.275Z,54.97
2023-05-16T06:00:19.732Z,54.95
2023-05-16T06:02:47.954Z,54.82
2023-05-16T06:05:16.065Z,53.84
2023-05-16T06:07:43.597Z,53.52
2023-05-16T06:10:11.079Z,52.64
2023-05-16T06:12:39.192Z,52.59
2023-05-16T06:15:07.702Z,52.47
2023-05-16T06:17:36.049Z,52.81
2023-05-16T06:20:03.852Z,52.66
2023-05-16T06:22:32.434Z,52.35
2023-05-16T06:25:00.148Z,52.38
2023-05-16T06:27:27.655Z,52.65
2023-05-16T06:29:55.191Z,54.04
2023-05-16T06:32:22.686Z,53.94
2023-05-16T06:34:50.304Z,53.53
2023-05-16T06:37:17.912Z,53.52
2023-05-16T06:39:45.327Z,53.54
2023-05-16T06:42:13.007Z,53.27
2023-05-16T06:44:40.928Z,53.33
2023-05-16T06:47:08.587Z,53.83
2023-05-16T06:49:36.274Z,53.64
2023-05-16T06:52:04.149Z,53.95
2023-05-16T06:54:32.072Z,53.80
2023-05-16T06:56:59.548Z,53.06
2023-05-16T06:59:28.123Z,51.91
2023-05-16T07:01:55.974Z,51.39
2023-05-16T07:04:23.597Z,50.63
2023-05-16T07:06:51.033Z,50.53
2023-05-16T07:09:19.137Z,50.28
2023-05-16T07:11:46.788Z,50.07
2023-05-16T07:14:14.216Z,49.53
2023-05-16T07:16:41.951Z,49.60
2023-05-16T07:19:10.308Z,48.85
2023-05-16T07:21:38.329Z,48.66
2023-05-16T07:24:06.437Z,49.32
2023-05-16T07:26:33.946Z,49.58
2023-05-16T07:29:02.659Z,49.66
2023-05-16T07:31:31.094Z,50.07
2023-05-16T07:33:58.695Z,49.58
2023-05-16T07:36:26.314Z,49.76
2023-05-16T07:38:53.889Z,49.64
2023-05-16T07:41:21.860Z,49.16
2023-05-16T07:43:49.359Z,50.19
2023-05-16T07:46:16.892Z,49.63
2023-05-16T07:48:44.401Z,49.63
2023-05-16T07:51:12.251Z,49.85
2023-05-16T07:53:40.218Z,49.97
2023-05-16T07:56:08.729Z,50.10
2023-05-16T07:58:36.549Z,50.19
2023-05-16T08:01:04.310Z,49.99
2023-05-16T08:03:32.860Z,50.29
2023-05-16T08:06:00.764Z,50.29
2023-05-16T08:08:29.079Z,49.52
2023-05-16T08:10:56.719Z,49.61
2023-05-16T08:13:24.457Z,49.55
2023-05-16T08:15:52.436Z,48.94
2023-05-16T08:18:22.460Z,48.76
2023-05-16T08:20:51.152Z,48.77
2023-05-16T08:23:18.996Z,48.52
2023-05-16T08:25:46.731Z,48.28
2023-05-16T08:28:15.091Z,47.35
2023-05-16T08:30:43.418Z,47.35
2023-05-16T08:33:11.915Z,46.83
2023-05-16T08:35:43.960Z,46.37
2023-05-16T08:38:11.607Z,46.55
2023-05-16T08:40:39.957Z,46.41
2023-05-16T08:43:07.594Z,46.59
2023-05-16T08:45:35.436Z,46.73
2023-05-16T08:48:03.446Z,47.06
2023-05-16T08:50:32.221Z,47.04
2023-05-16T08:53:02.016Z,47.87
2023-05-16T08:55:29.662Z,47.68
2023-05-16T08:57:58.016Z,49.74
2023-05-16T09:00:25.718Z,51.26
2023-05-16T09:02:53.554Z,52.33
2023-05-16T09:05:21.790Z,51.80
2023-05-16T09:07:50.325Z,52.07
2023-05-16T09:10:18.163Z,54.56
2023-05-16T09:12:45.968Z,54.51
2023-05-16T09:15:13.781Z,54.48
2023-05-16T09:17:46.435Z,55.65
2023-05-16T09:20:16.201Z,55.53
2023-05-16T09:22:51.827Z,55.79
2023-05-16T09:25:29.472Z,56.23
2023-05-16T09:28:00.968Z,56.43
2023-05-16T09:30:30.200Z,56.96
2023-05-16T09:32:59.033Z,57.81
2023-05-16T09:37:57.446Z,58.64
2023-05-16T09:40:25.387Z,58.55
2023-05-16T09:43:14.636Z,59.29
2023-05-16T09:45:46.003Z,58.93
2023-05-16T09:48:14.456Z,59.20
2023-05-16T09:50:46.355Z,57.81
2023-05-16T09:53:13.993Z,57.57
2023-05-16T09:55:41.745Z,57.57
2023-05-16T09:58:09.654Z,56.46
2023-05-16T10:00:37.882Z,56.21
2023-05-16T10:03:06.357Z,55.19
2023-05-16T10:05:34.576Z,55.00
2023-05-16T10:08:02.884Z,54.77
2023-05-16T10:10:30.662Z,53.80
2023-05-16T10:12:59.013Z,52.67
2023-05-16T10:15:27.344Z,52.52
2023-05-16T10:17:56.264Z,52.69
2023-05-16T10:20:24.071Z,53.04
2023-05-16T10:22:51.650Z,53.18
2023-05-16T10:25:33.286Z,52.16
2023-05-16T10:28:04.053Z,52.01
2023-05-16T10:30:34.346Z,51.07
2023-05-16T10:33:02.440Z,50.79
2023-05-16T10:35:31.452Z,50.61
2023-05-16T10:37:59.001Z,50.43
2023-05-16T10:40:27.080Z,49.80
2023-05-16T10:43:00.742Z,50.32
2023-05-16T10:45:28.755Z,50.63
2023-05-16T10:48:01.254Z,51.12
2023-05-16T10:50:39.555Z,50.12
2023-05-16T10:53:18.491Z,50.11
2023-05-16T10:56:01.732Z,49.65
2023-05-16T10:58:38.850Z,49.37
2023-05-16T11:01:20.454Z,49.05
2023-05-16T11:03:53.953Z,48.60
2023-05-16T11:06:42.415Z,48.66
2023-05-16T11:09:16.071Z,48.35
2023-05-16T11:11:53.275Z,49.25
2023-05-16T11:14:31.928Z,49.12
2023-05-16T11:17:15.854Z,49.06
2023-05-16T11:19:55.797Z,49.15
2023-05-16T11:22:30.222Z,49.48
2023-05-16T11:25:07.486Z,50.06
2023-05-16T11:27:37.439Z,49.80
2023-05-16T11:30:05.186Z,50.69
2023-05-16T11:32:34.675Z,50.99
2023-05-16T11:35:03.681Z,50.91
2023-05-16T11:37:31.343Z,51.83
2023-05-16T11:40:09.668Z,51.55
2023-05-16T11:42:42.531Z,51.35
2023-05-16T11:45:29.032Z,52.22
2023-05-16T11:48:04.294Z,52.42
2023-05-16T11:50:34.099Z,51.91
2023-05-16T11:53:02.122Z,52.35
2023-05-16T11:55:41.414Z,52.18
2023-05-16T11:58:14.142Z,52.73
2023-05-16T12:00:49.639Z,53.24
2023-05-16T12:03:18.612Z,53.26
2023-05-16T12:05:53.249Z,53.69
2023-05-16T12:08:25.076Z,53.50
2023-05-16T12:10:53.336Z,54.15
2023-05-16T12:13:23.174Z,54.13
2023-05-16T12:15:52.509Z,53.91
2023-05-16T12:18:21.565Z,53.78
2023-05-16T12:20:49.479Z,53.30
2023-05-16T12:23:17.415Z,53.44
2023-05-16T12:25:46.406Z,53.96
2023-05-16T12:28:14.496Z,53.73
2023-05-16T12:30:43.052Z,53.69
2023-05-16T12:33:12.820Z,52.66
2023-05-16T12:35:42.092Z,52.57
2023-05-16T12:38:11.937Z,52.52
2023-05-16T12:40:42.498Z,52.42
2023-05-16T12:43:16.890Z,52.52
2023-05-16T12:45:50.707Z,52.47
2023-05-16T12:48:18.566Z,52.41
2023-05-16T12:50:46.330Z,52.13
2023-05-16T12:53:14.547Z,52.39
2023-05-16T12:55:42.809Z,51.64
2023-05-16T12:58:11.303Z,51.60
2023-05-16T13:00:39.158Z,51.01
2023-05-16T13:03:07.506Z,51.25
2023-05-16T13:05:35.869Z,50.75
2023-05-16T13:08:04.135Z,49.57
2023-05-16T13:10:31.937Z,49.44
2023-05-16T13:12:59.653Z,49.56
2023-05-16T13:15:27.482Z,49.72
2023-05-16T13:17:55.599Z,49.71
2023-05-16T13:20:23.483Z,49.13
2023-05-16T13:22:50.930Z,48.67
2023-05-16T13:25:20.079Z,49.17
2023-05-16T13:27:49.181Z,49.24
2023-05-16T13:30:16.790Z,49.30
2023-05-16T13:32:44.636Z,49.06
2023-05-16T13:35:12.147Z,48.79
2023-05-16T13:37:41.188Z,48.96
2023-05-16T13:40:10.012Z,48.91
2023-05-16T13:42:38.418Z,49.06
2023-05-16T13:45:06.893Z,48.99
2023-05-16T13:47:36.598Z,49.20
2023-05-16T13:50:08.906Z,49.24
2023-05-16T13:52:38.124Z,49.58
2023-05-16T13:55:06.573Z,49.30
2023-05-16T13:57:35.762Z,50.14
2023-05-16T14:00:35.104Z,50.29
2023-05-16T14:02:59.768Z,50.07
2023-05-16T14:05:28.711Z,50.38
2023-05-16T14:07:56.436Z,51.23
2023-05-16T14:10:24.357Z,51.89
2023-05-16T14:12:52.044Z,53.03
2023-05-16T14:15:21.024Z,53.54
2023-05-16T14:17:48.475Z,53.83
2023-05-16T14:20:16.340Z,53.55
2023-05-16T14:22:44.242Z,54.09
2023-05-16T14:25:11.717Z,54.19
2023-05-16T14:27:40.044Z,53.37
2023-05-16T14:30:09.336Z,52.85
2023-05-16T14:32:37.971Z,52.77
2023-05-16T14:35:06.419Z,52.60
2023-05-16T14:37:34.073Z,52.57
2023-05-16T14:40:02.154Z,52.72
2023-05-16T14:42:29.934Z,52.44
2023-05-16T14:44:57.693Z,51.89
2023-05-16T14:47:25.264Z,52.02
2023-05-16T14:49:54.099Z,51.69
2023-05-16T14:52:22.430Z,51.73
2023-05-16T14:54:49.896Z,51.50
2023-05-16T14:57:17.519Z,51.90
2023-05-16T14:59:45.273Z,51.71
2023-05-16T15:02:12.895Z,51.16
2023-05-16T15:04:40.655Z,51.49
2023-05-16T15:07:08.282Z,51.58
2023-05-16T15:09:36.370Z,51.78
2023-05-16T15:12:06.280Z,51.31
2023-05-16T15:14:33.893Z,51.69
2023-05-16T15:17:01.502Z,51.56
2023-05-16T15:19:29.414Z,51.45
2023-05-16T15:21:57.339Z,51.76
2023-05-16T15:24:24.791Z,52.11
2023-05-16T15:26:52.777Z,52.21
2023-05-16T15:29:20.856Z,51.44
2023-05-16T15:31:48.313Z,51.27
2023-05-16T15:34:15.841Z,51.01
2023-05-16T15:36:43.216Z,51.10
2023-05-16T15:39:10.674Z,51.08
2023-05-16T15:42:05.165Z,50.74
2023-05-16T15:44:26.219Z,50.61
2023-05-16T15:46:53.905Z,51.08
2023-05-16T15:49:22.043Z,51.09
2023-05-16T15:51:50.564Z,50.97
2023-05-16T15:54:17.919Z,51.19
2023-05-16T15:56:45.429Z,50.92
2023-05-16T15:59:13.289Z,50.99
2023-05-16T16:01:41.151Z,50.77
2023-05-16T16:04:08.761Z,50.80
2023-05-16T16:06:36.256Z,50.77
2023-05-16T16:09:03.887Z,51.28
2023-05-16T16:11:32.851Z,50.91
2023-05-16T16:14:00.499Z,51.03
2023-05-16T16:16:28.243Z,50.71
2023-05-16T16:18:55.892Z,50.72
2023-05-16T16:21:23.710Z,50.82
2023-05-16T16:23:51.403Z,50.46
2023-05-16T16:26:18.885Z,51.15
2023-05-16T16:28:46.955Z,50.60
2023-05-16T16:31:14.516Z,50.57
2023-05-16T16:33:42.085Z,51.03
2023-05-16T16:36:09.868Z,51.25
2023-05-16T16:38:37.432Z,51.22
2023-05-16T16:41:04.874Z,51.18
2023-05-16T16:43:33.888Z,51.38
2023-05-16T16:46:01.391Z,51.30
2023-05-16T16:48:29.056Z,51.46
2023-05-16T16:50:56.535Z,51.35
2023-05-16T16:53:24.477Z,52.10
2023-05-16T16:55:52.936Z,52.01
2023-05-16T16:58:21.125Z,52.58
2023-05-16T17:00:49.268Z,52.43
2023-05-16T17:03:17.701Z,53.12
2023-05-16T17:05:45.309Z,53.94
2023-05-16T17:08:13.116Z,54.08
2023-05-16T17:10:40.756Z,54.67
2023-05-16T17:13:10.555Z,55.14
2023-05-16T17:15:38.476Z,55.61
2023-05-16T17:18:09.119Z,55.11
2023-05-16T17:20:36.644Z,55.49
2023-05-16T17:23:04.349Z,55.06
2023-05-16T17:25:32.189Z,55.46
2023-05-16T17:28:00.077Z,55.69
2023-05-16T17:30:27.690Z,55.66
2023-05-16T17:32:55.573Z,55.59
2023-05-16T17:35:23.617Z,55.83
2023-05-16T17:37:51.306Z,56.18
2023-05-16T17:40:18.955Z,56.17
2023-05-16T17:42:46.816Z,56.18
2023-05-16T17:45:15.688Z,56.59
2023-05-16T17:47:44.213Z,56.53
2023-05-16T17:50:12.273Z,56.69
2023-05-16T17:52:40.389Z,57.10
2023-05-16T17:55:09.351Z,56.99
2023-05-16T17:57:38.005Z,57.79
2023-05-16T18:00:07.061Z,57.55
2023-05-16T18:02:38.162Z,58.03
2023-05-16T18:05:07.018Z,57.89
2023-05-16T18:07:35.632Z,57.99
2023-05-16T18:10:03.993Z,58.07
2023-05-16T18:12:32.242Z,58.24
2023-05-16T18:14:59.910Z,58.27
2023-05-16T18:17:27.935Z,58.47
2023-05-16T18:19:55.756Z,58.73
2023-05-16T18:22:23.709Z,59.09
2023-05-16T18:24:51.863Z,59.58
2023-05-16T18:27:19.612Z,60.17
2023-05-16T18:29:47.550Z,60.03
2023-05-16T18:32:16.072Z,60.51
2023-05-16T18:34:44.147Z,60.38
2023-05-16T18:37:11.853Z,60.62
2023-05-16T18:39:41.510Z,60.62
2023-05-16T18:42:10.302Z,61.27
2023-05-16T18:44:37.925Z,62.21
2023-05-16T18:47:06.203Z,62.60
2023-05-16T18:49:38.735Z,61.60
2023-05-16T18:52:10.499Z,61.88
2023-05-16T18:54:38.658Z,62.10
2023-05-16T18:57:06.717Z,62.90
2023-05-16T18:59:35.857Z,62.59
2023-05-16T19:02:04.397Z,62.69
2023-05-16T19:04:32.682Z,62.68
2023-05-16T19:07:03.031Z,63.07
2023-05-16T19:09:32.503Z,62.97
2023-05-16T19:11:59.945Z,62.49
2023-05-16T19:14:28.089Z,62.48
2023-05-16T19:16:55.868Z,63.09
2023-05-16T19:19:24.191Z,62.85
2023-05-16T19:21:52.301Z,62.64
2023-05-16T19:24:19.837Z,62.74
2023-05-16T19:26:47.262Z,62.52
2023-05-16T19:29:14.806Z,62.87
2023-05-16T19:31:42.258Z,63.38
2023-05-16T19:34:09.966Z,63.25
2023-05-16T19:36:37.946Z,63.51
2023-05-16T19:39:05.817Z,63.69
2023-05-16T19:41:34.046Z,63.58
2023-05-16T19:44:01.480Z,63.71
2023-05-16T19:46:29.332Z,63.98
2023-05-16T19:48:57.085Z,64.19
2023-05-16T19:51:40.209Z,64.47
2023-05-16T19:54:09.132Z,64.55
2023-05-16T19:56:36.803Z,65.09
2023-05-16T19:59:04.267Z,65.75
2023-05-16T20:01:33.580Z,66.08
2023-05-16T20:04:02.299Z,67.72
2023-05-16T20:06:31.335Z,68.25
2023-05-16T20:08:58.888Z,68.74
2023-05-16T20:11:26.585Z,69.02
2023-05-16T20:13:55.515Z,70.11
2023-05-16T20:16:23.150Z,70.53
2023-05-16T20:18:51.285Z,71.13
2023-05-16T20:21:19.231Z,72.11
2023-05-16T20:23:46.690Z,72.75
2023-05-16T20:26:15.017Z,73.18
2023-05-16T20:28:42.506Z,73.41
2023-05-16T20:31:09.910Z,74.13
2023-05-16T20:33:37.553Z,75.09
2023-05-16T20:36:05.528Z,75.01
2023-05-16T20:38:33.079Z,75.60
2023-05-16T20:41:00.706Z,76.03
2023-05-16T20:43:28.118Z,76.92
2023-05-16T20:45:56.107Z,77.80
2023-05-16T20:48:23.732Z,78.21
2023-05-16T20:50:54.741Z,79.34
2023-05-16T20:53:22.542Z,80.13
2023-05-16T20:55:50.083Z,80.66
2023-05-16T20:58:17.553Z,81.18
2023-05-16T21:00:44.968Z,81.35
2023-05-16T21:03:12.843Z,82.04
2023-05-16T21:05:40.825Z,81.38
2023-05-16T21:08:09.013Z,81.53
2023-05-16T21:10:36.437Z,82.51
2023-05-16T21:13:03.970Z,82.56
2023-05-16T21:15:31.601Z,83.09
2023-05-16T21:17:59.245Z,83.18
2023-05-16T21:20:29.813Z,83.61
2023-05-16T21:22:57.481Z,84.28
2023-05-16T21:25:25.181Z,84.75
2023-05-16T21:27:53.175Z,85.14
2023-05-16T21:30:20.707Z,85.93
2023-05-16T21:32:48.544Z,86.31
2023-05-16T21:35:16.233Z,87.10
2023-05-16T21:37:44.275Z,86.53
2023-05-16T21:40:18.694Z,86.68
2023-05-16T21:42:46.287Z,86.95
2023-05-16T21:45:16.218Z,87.61
2023-05-16T21:47:43.859Z,87.80
2023-05-16T21:50:11.967Z,88.61
2023-05-16T21:52:39.591Z,89.69
2023-05-16T21:55:07.890Z,90.05
2023-05-16T21:57:35.581Z,91.23
2023-05-16T22:00:06.459Z,92.12
2023-05-16T22:02:36.535Z,92.10
2023-05-16T22:05:04.658Z,91.43
2023-05-16T22:07:32.670Z,90.81
2023-05-16T22:10:00.820Z,91.38
2023-05-16T22:12:29.466Z,91.03
2023-05-16T22:14:57.265Z,91.10
2023-05-16T22:17:25.002Z,91.39
2023-05-16T22:19:52.796Z,91.44
2023-05-16T22:22:20.560Z,90.85
2023-05-16T22:24:48.390Z,90.90
2023-05-16T22:27:15.922Z,90.00
2023-05-16T22:29:43.563Z,90.22
2023-05-16T22:32:11.456Z,89.66
2023-05-16T22:34:39.418Z,89.52
2023-05-16T22:37:08.182Z,89.19
2023-05-16T22:39:36.100Z,88.77
2023-05-16T22:42:04.018Z,89.21
2023-05-16T22:44:31.863Z,88.83
2023-05-16T22:46:59.430Z,88.80
2023-05-16T22:49:26.914Z,87.93
2023-05-16T22:51:54.497Z,88.23
2023-05-16T22:54:22.096Z,88.43
2023-05-16T22:56:49.562Z,88.44
2023-05-16T22:59:17.035Z,88.54
2023-05-16T23:01:44.617Z,88.10
2023-05-16T23:04:12.294Z,88.30
2023-05-16T23:06:40.192Z,88.21
2023-05-16T23:09:08.181Z,87.94
2023-05-16T23:11:35.809Z,87.41
2023-05-16T23:14:03.837Z,87.36
2023-05-16T23:16:31.455Z,86.34
2023-05-16T23:18:59.292Z,86.92
2023-05-16T23:21:27.248Z,86.53
2023-05-16T23:23:54.775Z,86.64
2023-05-16T23:26:23.279Z,86.31
2023-05-16T23:28:51.201Z,86.67
2023-05-16T23:31:19.020Z,86.68
2023-05-16T23:33:46.555Z,86.93
2023-05-16T23:36:14.431Z,86.97
2023-05-16T23:38:42.369Z,86.88
2023-05-16T23:41:10.602Z,86.06
2023-05-16T23:43:38.243Z,86.56
2023-05-16T23:46:06.202Z,86.12
2023-05-16T23:48:36.347Z,86.15
2023-05-16T23:51:07.240Z,86.27
2023-05-16T23:53:35.397Z,86.32
2023-05-16T23:56:03.104Z,85.95
2023-05-16T23:58:31.379Z,85.72
